Time,TemperatureF,DewpointF,PressureIn,WindDirection,WindDirectionDegrees,WindSpeedMPH,WindSpeedGustMPH,Humidity,HourlyPrecipIn,Conditions,Clouds,dailyrainin,SoftwareType,DateUTC
2013-05-09 00:00:00,44.3,38.2,29.95,NE,45,0.0,1.0,79,0.00,,SKC,0.00,VWS V12.07,2013-05-09 06:00:00,
2013-05-09 01:00:00,44.5,37.1,29.93,NE,45,0.0,0.0,75,0.00,,SKC,0.00,VWS V12.07,2013-05-09 07:00:00,
2013-05-09 02:00:00,44.2,36.5,29.92,NE,45,0.0,0.0,74,0.00,,SKC,0.00,VWS V12.07,2013-05-09 08:00:00,
2013-05-09 03:00:00,45.2,36.7,29.93,NE,45,0.0,0.0,72,0.00,,SKC,0.00,VWS V12.07,2013-05-09 09:00:00,
2013-05-09 04:00:00,45.4,35.8,29.92,NE,45,0.0,0.0,69,0.00,,SKC,0.00,VWS V12.07,2013-05-09 10:00:00,
2013-05-09 05:00:00,42.8,35.8,29.92,NE,45,0.0,0.0,76,0.00,,SKC,0.00,VWS V12.07,2013-05-09 11:00:00,
2013-05-09 06:00:00,43.9,35.8,29.92,NE,45,0.0,0.0,73,0.00,,SKC,0.00,VWS V12.07,2013-05-09 12:00:00,
2013-05-09 07:00:00,43.9,36.2,29.98,NE,45,0.0,0.0,74,0.00,,SKC,0.00,VWS V12.07,2013-05-09 13:00:00,
2013-05-09 08:00:00,49.5,39.8,29.96,NE,45,0.0,0.0,69,0.00,,SKC,0.00,VWS V12.07,2013-05-09 14:00:00,
2013-05-09 09:00:00,51.3,40.7,29.97,ESE,112,0.0,4.0,67,0.00,,SKC,0.00,VWS V12.07,2013-05-09 15:00:00,
2013-05-09 10:00:00,52.9,41.9,29.96,East,90,0.0,6.0,66,0.00,,SKC,0.00,VWS V12.07,2013-05-09 16:00:00,
2013-05-09 11:00:00,55.9,41.3,29.93,ENE,68,0.0,6.0,58,0.00,,SKC,0.00,VWS V12.07,2013-05-09 17:00:00,
2013-05-09 12:00:00,58.1,42.0,29.93,East,90,1.0,7.0,55,0.00,,SKC,0.00,VWS V12.07,2013-05-09 18:00:00,
2013-05-09 13:00:00,59.0,39.9,29.92,ESE,112,1.0,7.0,49,0.00,,SKC,0.00,VWS V12.07,2013-05-09 19:00:00,
2013-05-09 14:00:00,62.0,37.4,29.91,ESE,112,0.0,9.0,40,0.00,,SKC,0.00,VWS V12.07,2013-05-09 20:00:00,
2013-05-09 15:00:00,65.0,36.0,29.86,ESE,112,1.0,9.0,34,0.00,,SKC,0.00,VWS V12.07,2013-05-09 21:00:00,
2013-05-09 16:00:00,63.7,35.6,29.86,East,90,1.0,9.0,35,0.00,,SKC,0.00,VWS V12.07,2013-05-09 22:00:00,
2013-05-09 17:00:00,63.5,33.1,29.87,ESE,112,1.0,9.0,32,0.00,,SKC,0.00,VWS V12.07,2013-05-09 23:00:00,
2013-05-09 18:00:00,65.2,31.3,29.85,SE,135,0.0,7.0,28,0.00,,SKC,0.00,VWS V12.07,2013-05-10 00:00:00,
2013-05-09 19:00:00,65.5,30.7,29.85,ESE,112,0.0,4.0,27,0.00,,SKC,0.00,VWS V12.07,2013-05-10 01:00:00,
2013-05-09 20:00:00,62.6,32.3,29.84,ESE,112,0.0,0.0,32,0.00,,SKC,0.00,VWS V12.07,2013-05-10 02:00:00,
2013-05-09 21:00:00,59.3,29.5,29.87,SSW,202,0.0,10.0,32,0.00,,SKC,0.00,VWS V12.07,2013-05-10 03:00:00,
2013-05-09 22:00:00,56.7,32.7,29.89,SSW,202,0.0,0.0,40,0.00,,SKC,0.00,VWS V12.07,2013-05-10 04:00:00,
2013-05-09 23:00:00,53.8,33.5,29.90,SW,225,0.0,1.0,46,0.00,,SKC,0.00,VWS V12.07,2013-05-10 05:00:00,